Time;durP1;ratioP1;P1;durP2;ratioP2;P2;SDS_P1;SDS_P2;PMS_P1;PMS_P2;Temp;Humidity;BMP_temperature;BMP_pressure;BME280_temperature;BME280_humidity;BME280_pressure;Samples;Min_cycle;Max_cycle;Signal;HPM_P1;HPM_P2
2023/01/18 00:01:06;;;;;;;6.35;3.50;;;;;;;0.33;87.73;93346.78;5029859;28;20057;-88
2023/01/18 00:03:33;;;;;;;4.75;3.10;;;;;;;0.28;87.34;93336.25;5034752;28;20041;-85
2023/01/18 00:06:01;;;;;;;7.47;3.30;;;;;;;0.18;87.13;93337.44;5035386;28;20045;-81
2023/01/18 00:08:28;;;;;;;4.72;2.67;;;;;;;0.17;86.68;93343.13;5035343;28;20092;-89
2023/01/18 00:10:55;;;;;;;6.82;2.60;;;;;;;0.17;86.53;93335.88;5034536;28;20076;-85
2023/01/18 00:13:23;;;;;;;4.22;2.80;;;;;;;0.16;86.33;93342.34;5034483;28;20041;-86
2023/01/18 00:15:50;;;;;;;5.05;2.85;;;;;;;0.22;86.50;93330.31;5035247;28;20045;-85
2023/01/18 00:18:16;;;;;;;4.70;2.70;;;;;;;0.17;86.35;93335.88;5034840;28;20053;-88
2023/01/18 00:20:43;;;;;;;3.95;2.58;;;;;;;0.10;86.76;93332.91;5034826;28;20068;-88
2023/01/18 00:23:09;;;;;;;7.95;3.30;;;;;;;0.08;86.86;93329.78;5038122;28;20048;-87
2023/01/18 00:25:36;;;;;;;4.07;2.88;;;;;;;0.18;86.80;93325.94;5037980;28;20037;-81
2023/01/18 00:28:02;;;;;;;5.00;2.47;;;;;;;0.21;86.42;93328.75;5034711;28;20041;-87
2023/01/18 00:30:30;;;;;;;6.43;2.78;;;;;;;0.22;86.32;93324.97;5040293;28;20572;-88
2023/01/18 00:32:58;;;;;;;5.57;3.05;;;;;;;0.15;86.49;93330.03;5039089;28;20045;-82
2023/01/18 00:35:25;;;;;;;6.10;2.75;;;;;;;0.21;86.47;93334.13;5031654;28;20041;-86
2023/01/18 00:37:53;;;;;;;6.15;2.90;;;;;;;0.25;85.74;93329.66;5040039;28;20525;-89
2023/01/18 00:40:21;;;;;;;4.57;2.50;;;;;;;0.24;85.51;93328.09;5038270;28;20053;-83
2023/01/18 00:45:33;;;;;;;5.30;2.60;;;;;;;0.17;85.70;93317.13;5033380;28;20072;-85
2023/01/18 00:48:01;;;;;;;5.18;2.92;;;;;;;0.15;85.54;93318.56;5047336;28;20033;-83
2023/01/18 00:50:27;;;;;;;4.00;2.72;;;;;;;0.12;85.15;93319.22;5044162;28;20052;-86
2023/01/18 00:52:57;;;;;;;5.50;3.05;;;;;;;0.02;85.91;93309.69;5037874;28;20445;-83
2023/01/18 00:55:23;;;;;;;6.03;3.05;;;;;;;-0.11;86.54;93313.38;5039389;28;20045;-85
2023/01/18 00:57:50;;;;;;;9.35;3.75;;;;;;;-0.15;87.52;93313.28;5037045;28;20534;-81
2023/01/18 01:00:22;;;;;;;6.60;3.60;;;;;;;-0.20;87.35;93312.69;5036294;28;20054;-85
2023/01/18 01:02:50;;;;;;;6.60;3.22;;;;;;;-0.29;87.95;93312.72;5036783;28;20045;-85
2023/01/18 01:08:04;;;;;;;4.55;2.80;;;;;;;-0.44;88.71;93303.38;5038423;28;20056;-86
2023/01/18 01:10:31;;;;;;;6.28;3.10;;;;;;;-0.39;88.64;93310.44;5039043;28;20053;-85
2023/01/18 01:26:40;;;;;;;6.32;3.25;;;;;;;-0.59;89.64;93327.97;5050698;28;20113;-81
2023/01/18 01:29:06;;;;;;;7.43;3.03;;;;;;;-0.60;89.71;93329.88;5056080;28;20051;-85
2023/01/18 01:31:33;;;;;;;6.25;3.05;;;;;;;-0.56;89.66;93332.69;5047944;28;20044;-85
2023/01/18 01:34:00;;;;;;;4.85;3.10;;;;;;;-0.46;89.26;93332.31;5056565;28;20059;-80
2023/01/18 01:36:27;;;;;;;6.20;3.33;;;;;;;-0.55;88.89;93334.25;5056236;28;20045;-85
2023/01/18 01:38:54;;;;;;;5.35;3.13;;;;;;;-0.55;89.32;93339.59;5056312;28;20061;-82
2023/01/18 01:41:25;;;;;;;5.80;3.42;;;;;;;-0.55;89.13;93348.41;5055306;28;20029;-82
2023/01/18 01:43:53;;;;;;;5.05;2.80;;;;;;;-0.53;89.44;93343.50;5056618;28;20049;-81
2023/01/18 01:46:32;;;;;;;5.22;3.22;;;;;;;-0.61;89.42;93351.56;5051972;28;20056;-85
2023/01/18 01:49:07;;;;;;;5.93;3.03;;;;;;;-0.55;89.73;93350.28;5056430;28;20060;-78
2023/01/18 01:51:37;;;;;;;6.45;3.00;;;;;;;-0.48;88.89;93355.91;5055425;28;20025;-86
2023/01/18 01:54:09;;;;;;;4.25;2.63;;;;;;;-0.42;88.61;93357.28;5054584;28;20037;-85
2023/01/18 01:56:36;;;;;;;4.70;2.72;;;;;;;-0.39;88.11;93355.88;5056436;28;20033;-84
2023/01/18 01:59:04;;;;;;;4.72;2.95;;;;;;;-0.39;87.41;93353.97;5054888;28;20041;-82
2023/01/18 02:01:31;;;;;;;4.25;2.70;;;;;;;-0.42;87.50;93364.53;5054919;28;20049;-84
2023/01/18 02:04:01;;;;;;;4.85;2.63;;;;;;;-0.41;87.12;93361.56;5056133;28;20038;-84
2023/01/18 02:06:33;;;;;;;5.03;2.53;;;;;;;-0.40;87.26;93362.34;5048181;28;20053;-85
2023/01/18 02:09:02;;;;;;;5.13;2.17;;;;;;;-0.44;87.84;93367.53;5055884;28;20049;-83
2023/01/18 02:11:29;;;;;;;5.35;3.15;;;;;;;-0.33;87.46;93367.94;5055246;28;20260;-84
2023/01/18 02:14:00;;;;;;;5.25;2.67;;;;;;;-0.25;87.45;93369.81;5055127;28;20046;-82
2023/01/18 02:16:37;;;;;;;5.40;2.83;;;;;;;-0.15;87.15;93374.00;5055845;28;20030;-84
2023/01/18 02:19:17;;;;;;;5.43;3.10;;;;;;;-0.06;86.98;93375.50;5048851;28;20053;-86
2023/01/18 02:21:47;;;;;;;4.00;2.45;;;;;;;-0.01;86.23;93386.00;5055332;28;20029;-84
2023/01/18 02:24:49;;;;;;;5.40;2.83;;;;;;;0.07;85.45;93386.31;5050796;28;20041;-84
2023/01/18 02:27:22;;;;;;;4.35;3.05;;;;;;;0.10;85.01;93397.13;5007788;28;20057;-84
2023/01/18 02:30:03;;;;;;;5.28;2.72;;;;;;;0.20;84.99;93399.44;5043376;28;20037;-84
2023/01/18 02:32:46;;;;;;;5.28;2.90;;;;;;;0.31;84.58;93407.06;5047582;28;20030;-85
2023/01/18 02:35:20;;;;;;;4.85;2.47;;;;;;;0.38;84.12;93412.72;5054849;28;20047;-86
2023/01/18 02:37:56;;;;;;;5.20;3.22;;;;;;;0.39;83.79;93403.56;5055230;28;20030;-86
2023/01/18 02:40:27;;;;;;;3.60;2.40;;;;;;;0.35;83.64;93408.78;5054833;28;20060;-86
2023/01/18 02:48:33;;;;;;;4.70;2.75;;;;;;;0.04;85.07;93408.34;5047385;28;20040;-86
2023/01/18 02:50:59;;;;;;;3.70;2.30;;;;;;;0.01;84.84;93409.78;5054681;28;20026;-81
2023/01/18 02:53:26;;;;;;;4.85;2.50;;;;;;;-0.01;84.87;93411.97;5053725;28;20025;-79
2023/01/18 02:55:58;;;;;;;4.78;2.58;;;;;;;-0.02;85.11;93415.78;5055495;28;20084;-84
2023/01/18 02:58:29;;;;;;;3.63;2.03;;;;;;;-0.05;84.98;93421.78;5053369;28;20037;-86
2023/01/18 03:01:02;;;;;;;4.30;2.50;;;;;;;-0.08;85.11;93407.16;5052488;28;20040;-85
2023/01/18 03:03:29;;;;;;;4.32;2.42;;;;;;;-0.10;85.16;93405.91;5047154;28;20029;-82
2023/01/18 03:06:00;;;;;;;3.70;2.33;;;;;;;-0.12;85.17;93411.56;5055343;28;20022;-83
2023/01/18 03:08:34;;;;;;;4.38;2.45;;;;;;;-0.07;85.56;93413.28;5054780;28;20029;-85
2023/01/18 03:11:03;;;;;;;6.50;2.63;;;;;;;0.05;85.19;93416.03;5055014;28;20033;-81
2023/01/18 03:13:41;;;;;;;5.63;2.50;;;;;;;0.00;85.08;93418.94;5047220;28;20029;-82
2023/01/18 03:16:14;;;;;;;4.28;2.40;;;;;;;-0.21;85.06;93413.50;5054502;28;20033;-83
2023/01/18 03:18:59;;;;;;;5.90;2.58;;;;;;;-0.23;84.98;93417.59;5055156;28;20059;-84
2023/01/18 03:21:33;;;;;;;3.97;2.30;;;;;;;-0.16;84.43;93423.22;5043771;28;20061;-79
2023/01/18 03:24:01;;;;;;;3.60;2.20;;;;;;;-0.12;83.90;93416.91;5051690;28;20044;-78
2023/01/18 03:26:28;;;;;;;4.13;2.30;;;;;;;-0.09;83.83;93429.66;5054704;28;20040;-81
2023/01/18 03:34:38;;;;;;;7.43;2.40;;;;;;;-0.16;84.24;93420.56;5047549;28;20048;-80
2023/01/18 03:37:10;;;;;;;5.07;2.40;;;;;;;-0.22;84.54;93427.19;5053712;28;20063;-79
2023/01/18 03:39:41;;;;;;;3.35;2.38;;;;;;;-0.23;84.57;93425.63;5049302;28;20044;-86
2023/01/18 03:42:12;;;;;;;3.55;2.03;;;;;;;-0.23;84.47;93415.72;5040200;28;20060;-88
2023/01/18 03:44:47;;;;;;;2.78;2.10;;;;;;;-0.24;84.58;93424.06;5053907;28;20039;-79
2023/01/18 03:47:15;;;;;;;3.47;2.17;;;;;;;-0.24;84.60;93419.50;5054098;28;20060;-78
2023/01/18 03:49:42;;;;;;;3.53;2.00;;;;;;;-0.24;84.65;93410.69;5054419;28;20049;-80
2023/01/18 03:52:16;;;;;;;3.60;2.10;;;;;;;-0.18;84.47;93412.09;5047221;28;20038;-84
2023/01/18 03:54:52;;;;;;;4.25;2.47;;;;;;;-0.21;84.43;93412.72;5037621;28;20049;-88
2023/01/18 03:57:23;;;;;;;4.10;2.30;;;;;;;-0.19;84.29;93418.53;5034505;28;20122;-89
2023/01/18 03:59:50;;;;;;;3.60;2.15;;;;;;;-0.15;84.10;93417.56;5036904;28;20053;-87
2023/01/18 04:02:18;;;;;;;3.90;2.40;;;;;;;-0.14;84.01;93424.50;5033936;28;20049;-86
2023/01/18 04:04:45;;;;;;;5.22;2.60;;;;;;;-0.07;83.73;93423.97;5034529;28;20046;-87
2023/01/18 04:07:11;;;;;;;4.43;2.35;;;;;;;-0.02;83.78;93431.81;5033080;28;20056;-88
2023/01/18 04:09:38;;;;;;;3.78;2.50;;;;;;;-0.07;83.81;93434.69;5040591;28;20052;-89
2023/01/18 04:12:05;;;;;;;3.53;2.30;;;;;;;-0.10;83.93;93430.00;5036306;28;20045;-88
2023/01/18 04:14:31;;;;;;;3.78;2.20;;;;;;;-0.12;84.06;93435.63;5040968;28;20042;-87
2023/01/18 04:16:57;;;;;;;3.05;1.92;;;;;;;-0.10;84.05;93438.78;5043908;28;20053;-88
2023/01/18 04:19:27;;;;;;;4.70;2.60;;;;;;;-0.13;84.22;93435.97;5040759;28;20076;-87
2023/01/18 04:21:53;;;;;;;8.00;2.75;;;;;;;-0.16;84.31;93436.59;5034507;28;20053;-88
2023/01/18 04:24:19;;;;;;;3.92;2.38;;;;;;;-0.18;84.39;93441.50;5039960;28;20051;-89
2023/01/18 04:26:46;;;;;;;3.15;2.05;;;;;;;-0.18;84.36;93433.47;5040631;28;20128;-89
2023/01/18 04:29:12;;;;;;;4.22;2.20;;;;;;;-0.19;84.39;93437.25;5038011;28;20056;-89
2023/01/18 04:31:39;;;;;;;4.78;2.65;;;;;;;-0.07;84.11;93437.34;5036188;28;20046;-86
2023/01/18 04:34:05;;;;;;;3.53;2.28;;;;;;;-0.09;83.77;93436.91;5040422;28;20075;-88
2023/01/18 04:36:33;;;;;;;3.88;2.25;;;;;;;-0.08;83.71;93436.56;5042766;28;20046;-86
2023/01/18 04:38:59;;;;;;;4.53;2.83;;;;;;;-0.08;83.55;93435.78;5042312;28;20048;-84
2023/01/18 04:41:26;;;;;;;4.18;2.15;;;;;;;-0.11;83.53;93436.41;5042173;28;20443;-84
2023/01/18 04:43:52;;;;;;;4.28;2.50;;;;;;;-0.18;83.97;93449.53;5043090;28;20049;-85
2023/01/18 04:46:19;;;;;;;3.58;2.38;;;;;;;-0.13;83.96;93447.44;5043089;28;20058;-83
2023/01/18 04:48:50;;;;;;;5.05;2.60;;;;;;;-0.15;83.74;93438.19;5040080;28;20054;-91
2023/01/18 04:51:16;;;;;;;5.90;2.80;;;;;;;-0.18;83.76;93438.81;5040895;28;20080;-88
2023/01/18 04:53:45;;;;;;;3.72;2.40;;;;;;;-0.18;83.81;93447.63;5042052;28;20725;-88
2023/01/18 04:56:12;;;;;;;3.65;2.30;;;;;;;-0.18;83.85;93444.16;5040820;28;20055;-85
2023/01/18 04:58:39;;;;;;;5.00;2.40;;;;;;;-0.22;83.89;93451.25;5036371;28;20053;-91
2023/01/18 05:01:07;;;;;;;5.70;2.35;;;;;;;-0.26;84.08;93445.78;5035595;28;20461;-86
2023/01/18 05:03:36;;;;;;;3.45;2.22;;;;;;;-0.27;84.19;93444.97;5041706;28;20564;-84
2023/01/18 05:06:04;;;;;;;4.78;2.47;;;;;;;-0.25;84.24;93449.25;5040161;28;20064;-89
2023/01/18 05:08:30;;;;;;;5.45;2.50;;;;;;;-0.31;84.09;93445.97;5038760;28;20286;-88
2023/01/18 05:11:01;;;;;;;4.80;2.65;;;;;;;-0.36;83.65;93444.25;5041397;28;20046;-90
2023/01/18 05:13:28;;;;;;;4.38;2.25;;;;;;;-0.39;83.51;93447.56;5033548;28;20823;-84
2023/01/18 05:15:54;;;;;;;4.78;2.60;;;;;;;-0.44;83.34;93446.94;5042144;28;20049;-87
2023/01/18 05:18:21;;;;;;;4.22;2.08;;;;;;;-0.48;83.46;93452.13;5039297;28;20417;-85
2023/01/18 05:20:48;;;;;;;4.75;2.35;;;;;;;-0.50;83.63;93458.91;5040158;28;20142;-91
2023/01/18 05:23:15;;;;;;;3.63;2.10;;;;;;;-0.54;83.87;93461.44;5038488;28;20053;-89
2023/01/18 05:25:41;;;;;;;4.43;2.50;;;;;;;-0.54;84.10;93472.13;5039669;28;20050;-86
2023/01/18 05:28:10;;;;;;;4.18;2.53;;;;;;;-0.58;84.25;93474.63;5035146;28;20060;-90
2023/01/18 05:30:39;;;;;;;6.07;2.40;;;;;;;-0.59;84.48;93474.97;5037954;28;20426;-90
2023/01/18 05:33:05;;;;;;;4.97;2.50;;;;;;;-0.59;84.42;93481.09;5036741;28;20061;-87
2023/01/18 05:35:32;;;;;;;4.20;2.83;;;;;;;-0.64;84.28;93483.16;5037432;28;20469;-83
2023/01/18 05:37:58;;;;;;;12.32;3.10;;;;;;;-0.68;84.41;93484.88;5039662;28;20041;-84
2023/01/18 05:40:25;;;;;;;5.28;2.80;;;;;;;-0.72;84.45;93483.97;5038455;28;20548;-90
2023/01/18 05:42:52;;;;;;;4.15;2.70;;;;;;;-0.73;84.68;93490.38;5038813;28;20049;-89
2023/01/18 05:45:20;;;;;;;6.25;3.17;;;;;;;-0.75;84.77;93490.72;5037916;28;20117;-87
2023/01/18 05:47:46;;;;;;;5.00;2.92;;;;;;;-0.77;84.85;93489.47;5040107;28;20041;-89
2023/01/18 05:50:13;;;;;;;5.93;3.60;;;;;;;-0.81;85.18;93495.44;5037784;28;20049;-85
2023/01/18 05:52:39;;;;;;;6.30;3.38;;;;;;;-0.98;87.15;93490.13;5028894;28;20049;-85
2023/01/18 05:55:06;;;;;;;5.90;3.20;;;;;;;-0.86;87.08;93484.91;5038090;28;20048;-90
2023/01/18 05:57:33;;;;;;;5.65;3.20;;;;;;;-0.91;87.51;93493.09;5036757;28;20037;-84
2023/01/18 06:00:01;;;;;;;6.18;2.90;;;;;;;-0.74;87.32;93502.97;5038704;28;20045;-82
2023/01/18 06:02:28;;;;;;;4.95;2.58;;;;;;;-0.64;85.23;93491.16;5030475;28;20065;-86
2023/01/18 06:04:55;;;;;;;5.65;2.72;;;;;;;-0.52;84.62;93496.66;5038341;28;20048;-91
2023/01/18 06:07:21;;;;;;;3.60;1.85;;;;;;;-0.37;84.12;93482.75;5037317;28;20045;-81
2023/01/18 06:09:48;;;;;;;4.30;2.35;;;;;;;-0.29;83.39;93486.53;5037552;28;20053;-88
2023/01/18 06:12:15;;;;;;;3.95;2.13;;;;;;;-0.25;83.76;93492.03;5036309;28;20053;-87
2023/01/18 06:14:41;;;;;;;6.88;2.65;;;;;;;-0.27;83.43;93490.44;5037760;28;20109;-86
2023/01/18 06:17:07;;;;;;;4.43;2.60;;;;;;;-0.30;83.83;93491.09;5038543;28;20049;-89
2023/01/18 06:19:36;;;;;;;4.65;2.30;;;;;;;-0.34;84.08;93494.72;5034293;28;20045;-84
2023/01/18 06:22:02;;;;;;;4.75;2.55;;;;;;;-0.29;83.96;93508.69;5036430;28;20049;-86
2023/01/18 06:24:29;;;;;;;4.22;2.40;;;;;;;-0.24;84.07;93499.72;5037420;28;20048;-82
2023/01/18 06:26:56;;;;;;;4.35;2.55;;;;;;;-0.26;83.93;93507.28;5035777;28;20049;-90
2023/01/18 06:29:22;;;;;;;6.35;2.85;;;;;;;-0.21;83.56;93522.34;5035182;28;20072;-89
2023/01/18 06:31:49;;;;;;;5.90;2.75;;;;;;;-0.18;82.82;93527.06;5035371;28;20052;-83
2023/01/18 06:34:15;;;;;;;7.00;3.20;;;;;;;-0.12;82.80;93523.13;5036645;28;20052;-84
2023/01/18 06:36:43;;;;;;;4.03;2.50;;;;;;;-0.06;82.42;93527.19;5036091;28;20041;-88
2023/01/18 06:39:11;;;;;;;3.33;2.10;;;;;;;-0.01;82.79;93532.38;5036015;28;20510;-84
2023/01/18 06:41:38;;;;;;;4.32;2.38;;;;;;;-0.05;81.99;93537.59;5031966;28;20062;-90
2023/01/18 06:44:05;;;;;;;6.03;2.40;;;;;;;-0.06;81.58;93545.91;5031792;28;20148;-87
2023/01/18 06:46:31;;;;;;;5.32;2.38;;;;;;;-0.09;81.62;93550.03;5030590;28;20050;-89
2023/01/18 06:48:58;;;;;;;4.20;2.10;;;;;;;-0.04;81.72;93549.06;5035789;28;20064;-90
2023/01/18 06:51:25;;;;;;;7.35;3.65;;;;;;;-0.06;81.61;93565.41;5027866;28;20045;-88
2023/01/18 06:53:52;;;;;;;7.70;2.53;;;;;;;-0.08;81.42;93564.97;5037637;28;20065;-86
2023/01/18 06:56:19;;;;;;;3.85;2.28;;;;;;;-0.01;80.56;93561.78;5035965;28;20045;-81
2023/01/18 06:58:46;;;;;;;3.33;1.80;;;;;;;-0.03;80.74;93570.16;5034038;28;20099;-88
2023/01/18 07:01:13;;;;;;;2.90;1.83;;;;;;;-0.01;80.24;93572.50;5036528;28;20076;-85
2023/01/18 07:03:39;;;;;;;4.78;1.88;;;;;;;0.02;80.24;93579.88;5036031;28;20053;-88
2023/01/18 07:06:06;;;;;;;7.80;2.00;;;;;;;0.04;80.09;93577.66;5035546;28;20387;-86
2023/01/18 07:08:33;;;;;;;3.97;1.85;;;;;;;0.04;79.86;93583.03;5035361;28;20061;-86
2023/01/18 07:11:04;;;;;;;3.10;1.75;;;;;;;0.15;79.73;93586.13;5037055;28;20064;-82
2023/01/18 07:13:30;;;;;;;2.40;1.60;;;;;;;0.21;79.32;93591.03;5032646;28;20421;-87
2023/01/18 07:16:00;;;;;;;3.15;1.80;;;;;;;0.17;79.52;93595.44;5037755;28;20052;-89
2023/01/18 07:18:28;;;;;;;2.97;1.90;;;;;;;0.27;79.71;93598.88;5030697;28;20586;-90
2023/01/18 07:20:59;;;;;;;2.72;1.63;;;;;;;0.29;79.43;93602.00;5037563;28;20041;-87
2023/01/18 07:23:26;;;;;;;2.35;1.50;;;;;;;0.38;79.03;93602.75;5031133;28;20057;-89
2023/01/18 07:26:01;;;;;;;3.70;1.73;;;;;;;0.39;78.54;93612.34;5037341;28;20056;-85
2023/01/18 07:28:28;;;;;;;4.57;1.80;;;;;;;0.48;78.36;93610.44;5036368;28;20045;-81
2023/01/18 07:30:55;;;;;;;3.05;1.80;;;;;;;0.41;78.30;93616.28;5041986;28;20046;-88
2023/01/18 07:33:21;;;;;;;3.33;1.90;;;;;;;0.49;77.72;93614.69;5039680;28;20045;-86
2023/01/18 07:35:48;;;;;;;3.72;1.95;;;;;;;0.60;77.20;93618.56;5042474;28;20048;-84
2023/01/18 07:38:15;;;;;;;4.75;1.80;;;;;;;0.67;77.02;93624.19;5040793;28;20521;-85
2023/01/18 07:40:41;;;;;;;2.72;1.58;;;;;;;0.72;76.86;93620.56;5039062;28;20053;-80
2023/01/18 07:43:09;;;;;;;5.13;2.80;;;;;;;0.72;76.79;93616.00;5040307;28;20057;-82
2023/01/18 07:45:37;;;;;;;4.15;2.20;;;;;;;0.76;76.78;93622.28;5041036;28;20046;-85
2023/01/18 07:48:03;;;;;;;4.30;2.10;;;;;;;0.77;76.95;93628.41;5031363;28;20050;-88
2023/01/18 07:50:32;;;;;;;6.22;1.77;;;;;;;0.79;77.25;93639.63;5039624;28;20606;-85
2023/01/18 07:53:03;;;;;;;4.03;1.83;;;;;;;0.86;77.26;93647.13;5042535;28;20045;-79
2023/01/18 07:55:30;;;;;;;3.60;2.00;;;;;;;0.87;77.21;93651.38;5045259;28;20048;-85
2023/01/18 07:57:57;;;;;;;6.47;1.88;;;;;;;0.89;77.11;93657.19;5042434;28;20052;-85
2023/01/18 08:00:25;;;;;;;5.57;1.80;;;;;;;0.95;77.33;93666.63;5036001;28;20063;-84
2023/01/18 08:02:52;;;;;;;5.53;2.00;;;;;;;0.93;77.59;93660.81;5040415;28;20105;-85
2023/01/18 08:05:22;;;;;;;3.85;2.00;;;;;;;1.03;77.59;93668.47;5042614;28;20060;-84
2023/01/18 08:07:49;;;;;;;3.72;2.20;;;;;;;1.06;77.74;93662.47;5044032;28;20046;-87
2023/01/18 08:10:17;;;;;;;4.15;1.88;;;;;;;1.13;77.43;93670.78;5043087;28;20049;-85
2023/01/18 08:12:43;;;;;;;4.40;2.38;;;;;;;1.18;77.85;93670.59;5040409;28;20124;-86
2023/01/18 08:15:10;;;;;;;3.80;2.15;;;;;;;1.30;76.77;93683.31;5041178;28;20041;-85
2023/01/18 08:17:38;;;;;;;5.63;2.53;;;;;;;1.45;76.42;93690.00;5044174;28;20053;-84
2023/01/18 08:20:08;;;;;;;5.78;2.20;;;;;;;1.62;75.94;93689.91;5043947;28;20049;-87
2023/01/18 08:22:34;;;;;;;2.75;2.05;;;;;;;1.78;74.85;93688.19;5039608;28;20422;-83
2023/01/18 08:25:01;;;;;;;5.60;2.00;;;;;;;1.90;74.38;93689.38;5040045;28;20525;-84
2023/01/18 08:27:28;;;;;;;5.18;2.15;;;;;;;2.05;74.02;93686.09;5041743;28;20037;-84
2023/01/18 08:29:55;;;;;;;2.67;1.75;;;;;;;2.17;73.46;93696.88;5045653;28;20045;-85
2023/01/18 08:32:22;;;;;;;3.30;1.90;;;;;;;2.38;72.33;93704.13;5039052;28;20470;-83
2023/01/18 08:34:50;;;;;;;5.78;1.80;;;;;;;2.68;71.29;93702.84;5038913;28;20052;-83
2023/01/18 08:37:16;;;;;;;3.67;2.08;;;;;;;2.96;69.37;93712.97;5037650;28;20053;-84
2023/01/18 08:39:43;;;;;;;4.47;2.17;;;;;;;3.29;67.76;93716.38;5046212;28;20046;-85
2023/01/18 08:42:11;;;;;;;3.38;1.70;;;;;;;3.82;65.18;93722.63;5040466;28;20053;-79
2023/01/18 08:44:37;;;;;;;6.40;1.98;;;;;;;4.09;63.03;93725.69;5044397;28;20060;-82
2023/01/18 08:47:04;;;;;;;3.65;1.90;;;;;;;3.91;62.51;93725.97;5043486;28;20049;-84
2023/01/18 08:49:31;;;;;;;5.00;1.70;;;;;;;3.34;63.49;93726.91;5044218;28;20057;-83
2023/01/18 08:51:59;;;;;;;3.90;1.77;;;;;;;3.25;64.78;93731.63;5045736;28;20049;-82
2023/01/18 08:54:25;;;;;;;3.60;1.80;;;;;;;2.93;66.46;93743.22;5038331;28;20845;-85
2023/01/18 08:56:52;;;;;;;4.78;1.42;;;;;;;2.68;67.26;93748.53;5043407;28;20037;-80
2023/01/18 08:59:18;;;;;;;2.53;1.60;;;;;;;2.85;67.00;93745.66;5042425;28;20053;-85
2023/01/18 09:01:45;;;;;;;5.10;1.70;;;;;;;2.96;67.77;93756.00;5047968;28;20041;-81
2023/01/18 09:04:12;;;;;;;4.45;1.70;;;;;;;3.04;67.24;93755.13;5043691;28;20048;-85
2023/01/18 09:06:39;;;;;;;4.10;1.60;;;;;;;2.55;68.08;93760.34;5040687;28;20056;-81
2023/01/18 09:09:06;;;;;;;2.60;1.33;;;;;;;2.32;69.02;93766.09;5042309;28;20056;-82
2023/01/18 09:11:33;;;;;;;2.83;1.45;;;;;;;2.29;68.89;93772.09;5043556;28;20076;-82
2023/01/18 09:14:00;;;;;;;2.05;1.20;;;;;;;2.27;69.18;93774.34;5046091;28;20053;-78
2023/01/18 09:16:27;;;;;;;1.77;1.20;;;;;;;2.14;68.92;93780.78;5042443;28;20571;-83
2023/01/18 09:18:54;;;;;;;4.55;1.00;;;;;;;2.07;69.66;93781.28;5045161;28;20080;-85
2023/01/18 09:21:20;;;;;;;6.43;1.52;;;;;;;2.00;70.68;93788.28;5040837;28;20092;-88
2023/01/18 09:23:49;;;;;;;2.08;1.23;;;;;;;2.08;70.60;93792.78;5041372;28;20042;-80
2023/01/18 09:26:19;;;;;;;4.50;1.45;;;;;;;2.12;71.78;93793.72;5041318;28;20080;-84
2023/01/18 09:28:49;;;;;;;2.15;1.30;;;;;;;2.09;71.51;93802.44;5041046;28;20529;-87
2023/01/18 09:31:17;;;;;;;4.10;1.73;;;;;;;2.13;72.05;93806.03;5038245;28;20070;-84
2023/01/18 09:33:43;;;;;;;2.40;1.30;;;;;;;2.02;72.53;93804.84;5043867;28;20064;-85
2023/01/18 09:36:12;;;;;;;3.05;1.50;;;;;;;1.98;72.61;93811.97;5042601;28;20041;-85
2023/01/18 09:38:40;;;;;;;2.33;1.40;;;;;;;1.83;72.69;93814.13;5043815;28;20045;-85
2023/01/18 09:41:14;;;;;;;5.65;1.40;;;;;;;1.78;73.52;93817.00;5042365;28;20429;-85
2023/01/18 09:43:49;;;;;;;4.50;1.90;;;;;;;1.72;73.51;93829.03;5044135;28;20045;-84
2023/01/18 09:46:19;;;;;;;2.25;1.50;;;;;;;1.67;74.49;93823.84;5041256;28;20411;-83
2023/01/18 09:48:53;;;;;;;3.72;1.45;;;;;;;1.60;74.75;93839.63;5042600;28;20057;-87
2023/01/18 09:51:22;;;;;;;1.95;1.40;;;;;;;1.63;74.07;93838.22;5040871;28;20045;-86
2023/01/18 09:53:59;;;;;;;2.28;1.30;;;;;;;1.55;74.90;93850.53;5040949;28;20044;-83
2023/01/18 09:56:30;;;;;;;3.10;1.55;;;;;;;1.60;75.57;93857.63;5041951;28;20048;-83
2023/01/18 09:59:11;;;;;;;1.83;1.30;;;;;;;1.67;74.57;93869.44;5041231;28;20049;-87
2023/01/18 10:01:38;;;;;;;2.25;1.50;;;;;;;1.71;74.57;93864.19;5036839;28;20033;-85
2023/01/18 10:04:15;;;;;;;2.85;1.23;;;;;;;2.01;74.66;93862.31;5041946;28;20045;-83
2023/01/18 10:06:46;;;;;;;3.55;1.50;;;;;;;2.32;73.31;93873.50;5038840;28;20065;-87
2023/01/18 10:09:16;;;;;;;4.07;1.50;;;;;;;2.54;72.47;93869.69;5041270;28;20063;-82
2023/01/18 10:11:47;;;;;;;3.45;1.60;;;;;;;2.54;71.58;93874.28;5042856;28;20060;-80
2023/01/18 10:14:21;;;;;;;3.67;1.60;;;;;;;2.67;71.69;93873.25;5043569;28;20052;-86
2023/01/18 10:16:52;;;;;;;;;;;;;;;2.63;71.71;93880.41;5043800;28;20041;-84
2023/01/18 10:19:24;;;;;;;4.88;1.48;;;;;;;2.36;71.61;93884.38;5041327;28;19921;-83
2023/01/18 10:21:55;;;;;;;1.48;1.27;;;;;;;2.32;73.90;93884.25;5043996;28;20051;-86
2023/01/18 10:24:32;;;;;;;3.78;1.52;;;;;;;2.29;73.26;93882.19;5040600;28;20092;-82
2023/01/18 10:27:18;;;;;;;2.47;1.60;;;;;;;2.57;72.81;93901.31;5039788;28;20041;-77
2023/01/18 10:30:00;;;;;;;2.88;1.67;;;;;;;2.48;73.15;93897.09;5043280;28;20414;-84
2023/01/18 10:32:28;;;;;;;1.30;1.20;;;;;;;2.57;72.09;93903.19;5043304;28;20045;-88
2023/01/18 10:34:54;;;;;;;2.65;1.52;;;;;;;2.16;72.58;93910.09;5036032;28;20048;-81
2023/01/18 10:37:30;;;;;;;3.22;1.77;;;;;;;2.20;73.05;93918.28;5040342;28;20072;-84
2023/01/18 10:40:00;;;;;;;2.55;1.30;;;;;;;2.37;71.53;93909.34;5042028;28;20428;-84
2023/01/18 10:42:32;;;;;;;2.90;1.50;;;;;;;2.32;71.45;93921.06;5031749;28;20041;-84
2023/01/18 10:45:00;;;;;;;2.30;1.38;;;;;;;2.31;70.99;93920.25;5034258;28;20046;-79
2023/01/18 10:47:27;;;;;;;2.42;1.20;;;;;;;2.39;69.84;93928.59;5042458;28;20688;-79
2023/01/18 10:49:58;;;;;;;2.33;1.35;;;;;;;2.41;71.07;93929.06;5042891;28;20041;-82
2023/01/18 10:52:27;;;;;;;1.67;1.20;;;;;;;2.44;71.25;93934.56;5034668;28;20218;-81
2023/01/18 10:54:56;;;;;;;1.67;1.10;;;;;;;2.53;69.87;93926.44;5036457;28;20050;-83
2023/01/18 10:57:28;;;;;;;2.40;1.33;;;;;;;2.28;70.35;93926.28;5038499;28;20052;-84
2023/01/18 10:59:56;;;;;;;1.67;1.02;;;;;;;2.26;69.81;93917.78;5038219;28;20466;-86
2023/01/18 11:02:28;;;;;;;3.80;1.10;;;;;;;2.21;69.15;93923.31;5037771;28;20080;-87
2023/01/18 11:04:58;;;;;;;3.72;1.17;;;;;;;2.24;70.16;93919.19;5038724;28;20121;-87
2023/01/18 11:07:26;;;;;;;2.05;1.30;;;;;;;2.34;70.34;93924.19;5039466;28;20053;-88
2023/01/18 11:09:55;;;;;;;2.72;1.10;;;;;;;2.25;70.41;93929.63;5040799;28;20453;-85
2023/01/18 11:12:36;;;;;;;2.35;1.27;;;;;;;2.28;70.57;93920.91;5039379;28;20042;-89
2023/01/18 11:15:27;;;;;;;1.38;1.10;;;;;;;2.34;70.12;93940.31;5038025;28;20061;-84
2023/01/18 11:18:10;;;;;;;3.50;1.10;;;;;;;2.33;70.71;93939.53;5039755;28;20049;-87
2023/01/18 11:20:46;;;;;;;4.03;1.58;;;;;;;2.37;70.68;93949.63;5025157;28;20057;-84
2023/01/18 11:23:25;;;;;;;2.03;1.30;;;;;;;2.38;70.74;93961.94;5035254;28;20077;-85
2023/01/18 11:25:56;;;;;;;2.10;1.27;;;;;;;2.21;72.10;93957.44;5039661;28;20049;-88
2023/01/18 11:28:27;;;;;;;3.60;1.30;;;;;;;2.05;73.33;93966.03;5036472;28;20057;-86
2023/01/18 11:30:57;;;;;;;3.17;1.52;;;;;;;1.81;73.99;93963.91;5037248;28;20677;-84
2023/01/18 11:33:28;;;;;;;2.22;1.50;;;;;;;1.94;75.19;93964.03;5030963;28;20041;-82
2023/01/18 11:35:57;;;;;;;2.47;1.70;;;;;;;1.97;74.07;93974.13;5031465;28;20073;-83
2023/01/18 11:38:29;;;;;;;2.72;1.75;;;;;;;1.97;73.99;93972.22;5031560;28;20560;-80
2023/01/18 11:41:22;;;;;;;2.80;1.77;;;;;;;1.94;73.67;93980.13;5038590;28;20045;-86
2023/01/18 11:44:01;;;;;;;3.83;1.90;;;;;;;2.01;74.27;93975.06;5020627;28;20038;-88
2023/01/18 11:46:38;;;;;;;4.53;2.28;;;;;;;1.98;75.57;93987.22;5040142;28;20042;-79
2023/01/18 11:49:20;;;;;;;3.53;2.28;;;;;;;2.11;74.39;93990.03;5036228;28;20045;-79
2023/01/18 11:51:51;;;;;;;3.22;2.25;;;;;;;2.13;74.18;93988.56;5036264;28;20096;-83
2023/01/18 11:54:26;;;;;;;5.07;2.60;;;;;;;2.08;74.52;93991.44;5038388;28;20510;-79
2023/01/18 11:56:55;;;;;;;4.40;2.55;;;;;;;1.94;75.28;93996.25;5037273;28;20049;-79
2023/01/18 11:59:26;;;;;;;7.00;2.72;;;;;;;1.88;76.22;94002.88;5038891;28;20069;-78
2023/01/18 12:02:20;;;;;;;5.85;2.80;;;;;;;1.76;75.68;94003.53;5036812;28;20073;-79
2023/01/18 12:05:04;;;;;;;4.47;2.95;;;;;;;1.62;76.12;94005.63;5035293;28;20053;-80
2023/01/18 12:07:36;;;;;;;;;;;;;;;1.67;75.71;94019.66;5040342;28;20042;-77
2023/01/18 12:10:06;;;;;;;5.40;3.20;;;;;;;1.50;75.37;94025.03;5036572;28;19925;-81
2023/01/18 12:12:44;;;;;;;4.43;3.00;;;;;;;1.59;75.31;94028.50;5039352;28;20136;-78
2023/01/18 12:15:25;;;;;;;5.50;2.58;;;;;;;1.82;75.44;94032.56;5040941;28;20498;-80
2023/01/18 12:18:06;;;;;;;5.95;2.97;;;;;;;1.70;74.63;94045.84;5039880;28;20245;-80
2023/01/18 12:20:40;;;;;;;5.93;2.92;;;;;;;1.61;74.27;94038.91;5034165;28;20126;-78